메인 페이지
METAR-TAF:

공항 :

칭다오, 중국

칭다오 류팅 국제공항

위도: 36-04N, 경도: 120-20E, 고도: 77m

현재 날씨관측

예보는 45분 전, 19:00시(UTC)에 발표되었습니다.
동북동4kt
온도 28°C
습도 89%
기압 1007 hPa
시정: 6000m

METAR: ZSQD 291900Z 06002MPS 6000 NSC 28/26 Q1007 NOSIG

시각: 03:45 (19:45 UTC)

예보

예보는 4 시간 32분 전, 15:13시(UTC)에 발표되었습니다.
예보 대상 시간: 29일 18시부터 30일 18시까지 (UTC)
8kt
시정: 5000m
박무
일시적
30일 06시부터 30일 12시까지 (UTC)
시정: 2000m
고도 1300ft 상공 구름 많음
고도 4000ft 상공 구름 보통, 적란운.
뇌우, 비

TAF: ZSQD 291513Z 2918/3018 17004MPS 5000 BR NSC TX35/3006Z TN26/2920Z TEMPO 3006/3012 2000 TSRA BKN013 SCT040CB

METAR-TAF

4,000개 이상의 공항 관측 자료 및 예보 (METAR 및 TAF 보고).

지도상에서 검색 가능한 기상관측소가 노란 점과 빨간 점으로 표시되어 있습니다.

기상관측소 명을 보려면 표시 위로 마우스를 이동하세요.

날씨 관측과 예보를 보려면 클릭하세요.

지도 변경 : 확대하려면 엑스 표시가 있는 녹색 버튼, 축소하려면 빼기 표시가 있는 녹색 버튼, 다음 페이지의 지도를 보려면 녹색 화살표를 클릭하세요.


METAR-TAF: